sensor_id;sensor_type;location;lat;lon;timestamp;pressure;altitude;pressure_sealevel;temperature;humidity
28312;BME280;15572;48.810;9.148;2023-03-26T00:03:18;97655.25;;;7.11;100.00
28312;BME280;15572;48.810;9.148;2023-03-26T00:08:16;97652.09;;;7.07;100.00
28312;BME280;15572;48.810;9.148;2023-03-26T00:13:14;97656.38;;;7.02;100.00
28312;BME280;15572;48.810;9.148;2023-03-26T00:18:10;97644.94;;;7.00;100.00
28312;BME280;15572;48.810;9.148;2023-03-26T00:23:07;97647.19;;;6.96;100.00
28312;BME280;15572;48.810;9.148;2023-03-26T00:28:04;97654.16;;;6.91;100.00
28312;BME280;15572;48.810;9.148;2023-03-26T00:33:03;97661.94;;;6.86;100.00
28312;BME280;15572;48.810;9.148;2023-03-26T00:38:01;97660.47;;;6.83;100.00
28312;BME280;15572;48.810;9.148;2023-03-26T00:42:58;97647.66;;;6.85;100.00
28312;BME280;15572;48.810;9.148;2023-03-26T00:47:54;97638.00;;;6.91;100.00
28312;BME280;15572;48.810;9.148;2023-03-26T00:52:52;97640.63;;;6.99;100.00
28312;BME280;15572;48.810;9.148;2023-03-26T00:57:50;97629.19;;;6.97;100.00
28312;BME280;15572;48.810;9.148;2023-03-26T01:02:46;97605.50;;;7.07;100.00
28312;BME280;15572;48.810;9.148;2023-03-26T01:07:43;97596.09;;;7.17;100.00
28312;BME280;15572;48.810;9.148;2023-03-26T01:12:41;97589.22;;;7.30;100.00
28312;BME280;15572;48.810;9.148;2023-03-26T01:17:38;97590.88;;;7.31;100.00
28312;BME280;15572;48.810;9.148;2023-03-26T01:22:38;97582.41;;;7.34;100.00
28312;BME280;15572;48.810;9.148;2023-03-26T01:27:39;97562.16;;;7.38;100.00
28312;BME280;15572;48.810;9.148;2023-03-26T01:32:50;97565.56;;;7.46;100.00
28312;BME280;15572;48.810;9.148;2023-03-26T01:38:05;97560.56;;;7.43;100.00
28312;BME280;15572;48.810;9.148;2023-03-26T01:43:10;97541.59;;;7.51;100.00
28312;BME280;15572;48.810;9.148;2023-03-26T01:48:09;97537.41;;;7.49;100.00
28312;BME280;15572;48.810;9.148;2023-03-26T01:53:08;97530.16;;;7.49;100.00
28312;BME280;15572;48.810;9.148;2023-03-26T01:58:11;97525.44;;;7.51;100.00
28312;BME280;15572;48.810;9.148;2023-03-26T02:03:19;97509.25;;;7.51;100.00
28312;BME280;15572;48.810;9.148;2023-03-26T02:08:22;97506.50;;;7.45;100.00
28312;BME280;15572;48.810;9.148;2023-03-26T02:13:20;97486.44;;;7.47;100.00
28312;BME280;15572;48.810;9.148;2023-03-26T02:18:17;97477.31;;;7.48;100.00
28312;BME280;15572;48.810;9.148;2023-03-26T02:23:18;97472.16;;;7.47;100.00
28312;BME280;15572;48.810;9.148;2023-03-26T02:28:15;97461.97;;;7.42;100.00
28312;BME280;15572;48.810;9.148;2023-03-26T02:33:13;97469.19;;;7.42;100.00
28312;BME280;15572;48.810;9.148;2023-03-26T02:38:11;97460.03;;;7.36;100.00
28312;BME280;15572;48.810;9.148;2023-03-26T02:43:09;97465.44;;;7.36;100.00
28312;BME280;15572;48.810;9.148;2023-03-26T02:48:05;97463.09;;;7.33;100.00
28312;BME280;15572;48.810;9.148;2023-03-26T02:53:03;97450.47;;;7.34;100.00
28312;BME280;15572;48.810;9.148;2023-03-26T02:58:00;97455.03;;;7.33;100.00
28312;BME280;15572;48.810;9.148;2023-03-26T03:02:57;97438.25;;;7.31;100.00
28312;BME280;15572;48.810;9.148;2023-03-26T03:07:53;97426.81;;;7.29;100.00
28312;BME280;15572;48.810;9.148;2023-03-26T03:12:53;97410.09;;;7.34;100.00
28312;BME280;15572;48.810;9.148;2023-03-26T03:17:50;97406.19;;;7.36;100.00
28312;BME280;15572;48.810;9.148;2023-03-26T03:22:46;97397.69;;;7.39;100.00
28312;BME280;15572;48.810;9.148;2023-03-26T03:27:43;97388.41;;;7.42;100.00
28312;BME280;15572;48.810;9.148;2023-03-26T03:32:41;97379.09;;;7.44;100.00
28312;BME280;15572;48.810;9.148;2023-03-26T03:37:37;97367.94;;;7.47;100.00
28312;BME280;15572;48.810;9.148;2023-03-26T03:42:34;97360.88;;;7.46;100.00
28312;BME280;15572;48.810;9.148;2023-03-26T03:47:30;97357.78;;;7.49;100.00
28312;BME280;15572;48.810;9.148;2023-03-26T03:52:28;97362.59;;;7.54;100.00
28312;BME280;15572;48.810;9.148;2023-03-26T03:57:25;97345.84;;;7.58;100.00
28312;BME280;15572;48.810;9.148;2023-03-26T04:02:21;97348.13;;;7.61;100.00
28312;BME280;15572;48.810;9.148;2023-03-26T04:07:24;97337.38;;;7.61;100.00
28312;BME280;15572;48.810;9.148;2023-03-26T04:12:22;97332.41;;;7.65;100.00
28312;BME280;15572;48.810;9.148;2023-03-26T04:17:19;97326.81;;;7.67;100.00
28312;BME280;15572;48.810;9.148;2023-03-26T04:22:16;97310.47;;;7.68;100.00
28312;BME280;15572;48.810;9.148;2023-03-26T04:27:15;97310.91;;;7.72;100.00
28312;BME280;15572;48.810;9.148;2023-03-26T04:32:20;97302.81;;;7.72;100.00
28312;BME280;15572;48.810;9.148;2023-03-26T04:37:24;97283.94;;;7.72;100.00
28312;BME280;15572;48.810;9.148;2023-03-26T04:42:21;97271.31;;;7.72;100.00
28312;BME280;15572;48.810;9.148;2023-03-26T04:47:19;97266.34;;;7.76;100.00
28312;BME280;15572;48.810;9.148;2023-03-26T04:52:16;97239.22;;;7.77;100.00
28312;BME280;15572;48.810;9.148;2023-03-26T04:57:16;97251.47;;;7.80;100.00
28312;BME280;15572;48.810;9.148;2023-03-26T05:02:15;97252.53;;;7.92;100.00
28312;BME280;15572;48.810;9.148;2023-03-26T05:07:16;97246.94;;;7.93;100.00
28312;BME280;15572;48.810;9.148;2023-03-26T05:12:14;97249.03;;;7.98;100.00
28312;BME280;15572;48.810;9.148;2023-03-26T05:17:13;97248.03;;;8.06;100.00
28312;BME280;15572;48.810;9.148;2023-03-26T05:22:14;97240.34;;;8.09;100.00
28312;BME280;15572;48.810;9.148;2023-03-26T05:27:13;97218.78;;;8.09;100.00
28312;BME280;15572;48.810;9.148;2023-03-26T05:32:11;97203.25;;;8.11;100.00
28312;BME280;15572;48.810;9.148;2023-03-26T05:37:07;97187.47;;;8.15;100.00
28312;BME280;15572;48.810;9.148;2023-03-26T05:42:05;97198.06;;;8.16;100.00
28312;BME280;15572;48.810;9.148;2023-03-26T05:47:02;97185.63;;;8.15;100.00
28312;BME280;15572;48.810;9.148;2023-03-26T05:51:59;97187.69;;;8.20;100.00
28312;BME280;15572;48.810;9.148;2023-03-26T05:56:55;97171.94;;;8.23;100.00
28312;BME280;15572;48.810;9.148;2023-03-26T06:01:56;97160.94;;;8.25;100.00
28312;BME280;15572;48.810;9.148;2023-03-26T06:07:08;97157.22;;;8.26;100.00
28312;BME280;15572;48.810;9.148;2023-03-26T06:12:10;97140.00;;;8.27;100.00
28312;BME280;15572;48.810;9.148;2023-03-26T06:17:08;97121.13;;;8.27;100.00
28312;BME280;15572;48.810;9.148;2023-03-26T06:22:05;97123.03;;;8.33;100.00
28312;BME280;15572;48.810;9.148;2023-03-26T06:27:01;97102.91;;;8.35;98.95
28312;BME280;15572;48.810;9.148;2023-03-26T06:31:58;97094.19;;;8.40;97.88
28312;BME280;15572;48.810;9.148;2023-03-26T06:36:56;97093.34;;;8.39;96.60
28312;BME280;15572;48.810;9.148;2023-03-26T06:41:52;97093.53;;;8.44;96.01
28312;BME280;15572;48.810;9.148;2023-03-26T06:46:49;97091.47;;;8.47;94.96
28312;BME280;15572;48.810;9.148;2023-03-26T06:51:45;97071.97;;;8.51;94.06
28312;BME280;15572;48.810;9.148;2023-03-26T06:56:43;97070.09;;;8.52;94.48
28312;BME280;15572;48.810;9.148;2023-03-26T07:01:40;97067.19;;;8.60;94.81
28312;BME280;15572;48.810;9.148;2023-03-26T07:06:36;97064.91;;;8.57;95.35
28312;BME280;15572;48.810;9.148;2023-03-26T07:11:33;97059.50;;;8.57;94.67
28312;BME280;15572;48.810;9.148;2023-03-26T07:16:30;97043.50;;;8.62;94.45
28312;BME280;15572;48.810;9.148;2023-03-26T07:21:27;97039.34;;;8.66;94.27
28312;BME280;15572;48.810;9.148;2023-03-26T07:26:29;97033.94;;;8.66;94.09
28312;BME280;15572;48.810;9.148;2023-03-26T07:31:37;97012.16;;;8.67;94.83
28312;BME280;15572;48.810;9.148;2023-03-26T07:36:42;97007.00;;;8.59;96.91
28312;BME280;15572;48.810;9.148;2023-03-26T07:41:45;97012.63;;;8.51;98.57
28312;BME280;15572;48.810;9.148;2023-03-26T07:46:47;97002.47;;;8.47;99.97
28312;BME280;15572;48.810;9.148;2023-03-26T07:51:47;96984.22;;;8.49;100.00
28312;BME280;15572;48.810;9.148;2023-03-26T07:56:48;96988.34;;;8.44;100.00
28312;BME280;15572;48.810;9.148;2023-03-26T08:01:58;96985.06;;;8.36;100.00
28312;BME280;15572;48.810;9.148;2023-03-26T08:07:04;96987.97;;;8.34;100.00
28312;BME280;15572;48.810;9.148;2023-03-26T08:12:10;96977.19;;;8.28;100.00
28312;BME280;15572;48.810;9.148;2023-03-26T08:17:16;96969.38;;;8.07;100.00
28312;BME280;15572;48.810;9.148;2023-03-26T08:22:19;96956.50;;;8.09;100.00
28312;BME280;15572;48.810;9.148;2023-03-26T08:27:34;96941.97;;;8.10;100.00
28312;BME280;15572;48.810;9.148;2023-03-26T08:32:34;96941.34;;;8.14;100.00
28312;BME280;15572;48.810;9.148;2023-03-26T08:37:31;96933.44;;;8.13;100.00
28312;BME280;15572;48.810;9.148;2023-03-26T08:43:03;96924.53;;;8.19;100.00
28312;BME280;15572;48.810;9.148;2023-03-26T08:48:46;96921.81;;;8.25;100.00
28312;BME280;15572;48.810;9.148;2023-03-26T08:54:13;96919.91;;;8.45;100.00
28312;BME280;15572;48.810;9.148;2023-03-26T08:59:40;96928.13;;;8.64;100.00
28312;BME280;15572;48.810;9.148;2023-03-26T09:05:13;96905.69;;;8.70;100.00
28312;BME280;15572;48.810;9.148;2023-03-26T09:10:45;96906.91;;;9.12;100.00
28312;BME280;15572;48.810;9.148;2023-03-26T09:16:25;96905.19;;;9.17;100.00
28312;BME280;15572;48.810;9.148;2023-03-26T09:21:34;96929.16;;;9.07;100.00
28312;BME280;15572;48.810;9.148;2023-03-26T09:26:44;96935.50;;;9.19;100.00
28312;BME280;15572;48.810;9.148;2023-03-26T09:32:07;96928.81;;;9.28;100.00
28312;BME280;15572;48.810;9.148;2023-03-26T09:37:17;96920.47;;;9.80;100.00
28312;BME280;15572;48.810;9.148;2023-03-26T09:42:28;96910.69;;;10.03;100.00
28312;BME280;15572;48.810;9.148;2023-03-26T09:47:49;96907.69;;;10.11;100.00
28312;BME280;15572;48.810;9.148;2023-03-26T09:52:59;96898.72;;;10.18;100.00
28312;BME280;15572;48.810;9.148;2023-03-26T09:58:22;96900.81;;;10.52;100.00
28312;BME280;15572;48.810;9.148;2023-03-26T10:03:29;96894.38;;;10.83;100.00
28312;BME280;15572;48.810;9.148;2023-03-26T10:08:35;96892.75;;;10.93;100.00
28312;BME280;15572;48.810;9.148;2023-03-26T10:13:50;96892.16;;;10.91;100.00
28312;BME280;15572;48.810;9.148;2023-03-26T10:18:58;96890.50;;;10.90;98.19
28312;BME280;15572;48.810;9.148;2023-03-26T10:24:13;96880.13;;;10.87;94.43
28312;BME280;15572;48.810;9.148;2023-03-26T10:29:29;96884.41;;;11.36;90.06
28312;BME280;15572;48.810;9.148;2023-03-26T10:34:48;96859.72;;;11.79;85.12
28312;BME280;15572;48.810;9.148;2023-03-26T10:40:01;96878.41;;;12.39;80.91
28312;BME280;15572;48.810;9.148;2023-03-26T10:45:18;96875.75;;;12.56;73.01
28312;BME280;15572;48.810;9.148;2023-03-26T10:50:26;96877.13;;;12.82;66.58
28312;BME280;15572;48.810;9.148;2023-03-26T10:55:31;96886.56;;;12.79;66.95
28312;BME280;15572;48.810;9.148;2023-03-26T11:00:35;96891.19;;;12.67;64.25
28312;BME280;15572;48.810;9.148;2023-03-26T11:05:48;96878.88;;;12.36;67.59
28312;BME280;15572;48.810;9.148;2023-03-26T11:10:52;96874.69;;;11.94;65.22
28312;BME280;15572;48.810;9.148;2023-03-26T11:15:55;96889.78;;;12.01;55.98
28312;BME280;15572;48.810;9.148;2023-03-26T11:21:03;96875.31;;;12.47;55.56
28312;BME280;15572;48.810;9.148;2023-03-26T11:26:10;96873.47;;;13.66;53.57
28312;BME280;15572;48.810;9.148;2023-03-26T11:31:14;96850.63;;;14.22;50.12
28312;BME280;15572;48.810;9.148;2023-03-26T11:36:17;96849.28;;;14.03;48.25
28312;BME280;15572;48.810;9.148;2023-03-26T11:41:19;96842.34;;;14.34;46.75
28312;BME280;15572;48.810;9.148;2023-03-26T11:46:17;96842.06;;;13.92;47.84
28312;BME280;15572;48.810;9.148;2023-03-26T11:51:21;96843.81;;;13.48;50.46
28312;BME280;15572;48.810;9.148;2023-03-26T11:56:24;96852.13;;;13.58;49.06
28312;BME280;15572;48.810;9.148;2023-03-26T12:01:24;96845.00;;;14.29;48.02
28312;BME280;15572;48.810;9.148;2023-03-26T12:06:25;96851.06;;;13.76;48.98
28312;BME280;15572;48.810;9.148;2023-03-26T12:11:27;96885.69;;;12.90;62.96
28312;BME280;15572;48.810;9.148;2023-03-26T12:16:26;96857.72;;;11.87;76.27
28312;BME280;15572;48.810;9.148;2023-03-26T12:21:22;96860.03;;;12.70;69.45
28312;BME280;15572;48.810;9.148;2023-03-26T12:26:27;96856.88;;;12.09;67.33
28312;BME280;15572;48.810;9.148;2023-03-26T12:31:27;96847.41;;;12.23;69.40
28312;BME280;15572;48.810;9.148;2023-03-26T12:36:28;96862.78;;;11.83;73.64
28312;BME280;15572;48.810;9.148;2023-03-26T12:41:33;96859.09;;;11.66;74.97
28312;BME280;15572;48.810;9.148;2023-03-26T12:46:33;96850.13;;;11.30;82.25
28312;BME280;15572;48.810;9.148;2023-03-26T12:51:38;96837.44;;;12.01;84.87
28312;BME280;15572;48.810;9.148;2023-03-26T12:56:42;96820.38;;;13.80;74.66
28312;BME280;15572;48.810;9.148;2023-03-26T13:01:53;96816.53;;;14.58;64.09
28312;BME280;15572;48.810;9.148;2023-03-26T13:06:53;96806.31;;;14.05;63.89
28312;BME280;15572;48.810;9.148;2023-03-26T13:12:06;96806.50;;;13.43;67.61
28312;BME280;15572;48.810;9.148;2023-03-26T13:17:11;96802.06;;;13.37;65.45
28312;BME280;15572;48.810;9.148;2023-03-26T13:22:18;96800.31;;;13.31;62.96
28312;BME280;15572;48.810;9.148;2023-03-26T13:27:28;96787.63;;;13.37;62.39
28312;BME280;15572;48.810;9.148;2023-03-26T13:32:38;96799.41;;;13.42;61.59
28312;BME280;15572;48.810;9.148;2023-03-26T13:37:45;96785.88;;;14.03;57.64
28312;BME280;15572;48.810;9.148;2023-03-26T13:42:56;96777.84;;;14.13;58.04
28312;BME280;15572;48.810;9.148;2023-03-26T13:47:57;96777.97;;;13.63;56.14
28312;BME280;15572;48.810;9.148;2023-03-26T13:52:59;96766.56;;;13.27;57.18
28312;BME280;15572;48.810;9.148;2023-03-26T13:58:01;96773.50;;;13.18;59.39
28312;BME280;15572;48.810;9.148;2023-03-26T14:03:07;96758.44;;;12.99;60.75
28312;BME280;15572;48.810;9.148;2023-03-26T14:08:13;96753.59;;;13.01;61.62
28312;BME280;15572;48.810;9.148;2023-03-26T14:13:15;96742.00;;;13.05;60.00
28312;BME280;15572;48.810;9.148;2023-03-26T14:18:26;96746.44;;;12.95;58.14
28312;BME280;15572;48.810;9.148;2023-03-26T14:29:23;96792.53;;;12.61;54.18
28312;BME280;15572;48.810;9.148;2023-03-26T14:34:38;96799.91;;;11.28;63.68
28312;BME280;15572;48.810;9.148;2023-03-26T14:39:53;96856.28;;;9.75;83.15
28312;BME280;15572;48.810;9.148;2023-03-26T14:55:59;96815.00;;;7.80;100.00
28312;BME280;15572;48.810;9.148;2023-03-26T15:01:20;96825.03;;;8.11;100.00
28312;BME280;15572;48.810;9.148;2023-03-26T15:06:31;96820.53;;;8.49;100.00
28312;BME280;15572;48.810;9.148;2023-03-26T15:11:39;96828.88;;;8.72;100.00
28312;BME280;15572;48.810;9.148;2023-03-26T15:17:19;96857.47;;;8.49;100.00
28312;BME280;15572;48.810;9.148;2023-03-26T15:22:49;96870.16;;;8.28;100.00
28312;BME280;15572;48.810;9.148;2023-03-26T15:39:29;96861.06;;;7.52;100.00
28312;BME280;15572;48.810;9.148;2023-03-26T15:44:42;96853.38;;;7.49;100.00
28312;BME280;15572;48.810;9.148;2023-03-26T15:49:46;96844.09;;;7.18;100.00
28312;BME280;15572;48.810;9.148;2023-03-26T15:54:52;96848.63;;;7.11;100.00
28312;BME280;15572;48.810;9.148;2023-03-26T16:00:00;96847.19;;;7.09;100.00
28312;BME280;15572;48.810;9.148;2023-03-26T16:05:26;96830.63;;;7.12;100.00
28312;BME280;15572;48.810;9.148;2023-03-26T16:10:34;96822.16;;;7.15;100.00
28312;BME280;15572;48.810;9.148;2023-03-26T16:15:35;96828.75;;;7.12;100.00
28312;BME280;15572;48.810;9.148;2023-03-26T16:20:33;96843.47;;;7.16;100.00
28312;BME280;15572;48.810;9.148;2023-03-26T16:25:33;96835.78;;;7.33;100.00
28312;BME280;15572;48.810;9.148;2023-03-26T16:30:31;96854.63;;;7.40;100.00
28312;BME280;15572;48.810;9.148;2023-03-26T16:36:05;96869.56;;;7.42;100.00
28312;BME280;15572;48.810;9.148;2023-03-26T16:41:16;96890.06;;;7.30;100.00
28312;BME280;15572;48.810;9.148;2023-03-26T16:46:25;96899.38;;;7.34;100.00
28312;BME280;15572;48.810;9.148;2023-03-26T16:51:29;96909.13;;;7.35;100.00
28312;BME280;15572;48.810;9.148;2023-03-26T16:56:34;96909.53;;;7.26;100.00
28312;BME280;15572;48.810;9.148;2023-03-26T17:01:39;96918.00;;;7.29;100.00
28312;BME280;15572;48.810;9.148;2023-03-26T17:07:01;96915.50;;;7.28;100.00
28312;BME280;15572;48.810;9.148;2023-03-26T17:12:04;96915.31;;;7.29;100.00
28312;BME280;15572;48.810;9.148;2023-03-26T17:17:17;96898.94;;;7.17;100.00
28312;BME280;15572;48.810;9.148;2023-03-26T17:22:28;96909.72;;;7.17;100.00
28312;BME280;15572;48.810;9.148;2023-03-26T17:27:35;96920.28;;;7.19;100.00
28312;BME280;15572;48.810;9.148;2023-03-26T17:32:54;96910.56;;;7.25;100.00
28312;BME280;15572;48.810;9.148;2023-03-26T17:37:53;96904.34;;;7.24;100.00
28312;BME280;15572;48.810;9.148;2023-03-26T17:43:01;96904.34;;;7.17;100.00
28312;BME280;15572;48.810;9.148;2023-03-26T17:48:00;96911.38;;;7.25;100.00
28312;BME280;15572;48.810;9.148;2023-03-26T17:53:01;96909.50;;;7.12;100.00
28312;BME280;15572;48.810;9.148;2023-03-26T17:58:01;96920.69;;;7.03;100.00
28312;BME280;15572;48.810;9.148;2023-03-26T18:03:01;96922.31;;;6.97;100.00
28312;BME280;15572;48.810;9.148;2023-03-26T18:08:35;96936.41;;;7.12;100.00
28312;BME280;15572;48.810;9.148;2023-03-26T18:14:12;96926.69;;;7.05;100.00
28312;BME280;15572;48.810;9.148;2023-03-26T18:19:14;96928.75;;;7.09;100.00
28312;BME280;15572;48.810;9.148;2023-03-26T18:24:18;96923.81;;;7.19;100.00
28312;BME280;15572;48.810;9.148;2023-03-26T18:29:21;96913.81;;;7.00;100.00
28312;BME280;15572;48.810;9.148;2023-03-26T18:34:19;96914.47;;;7.02;100.00
28312;BME280;15572;48.810;9.148;2023-03-26T18:39:17;96910.50;;;6.92;100.00
28312;BME280;15572;48.810;9.148;2023-03-26T18:44:15;96921.09;;;7.06;100.00
28312;BME280;15572;48.810;9.148;2023-03-26T18:49:28;96909.66;;;6.85;100.00
28312;BME280;15572;48.810;9.148;2023-03-26T19:01:07;96916.53;;;6.94;100.00
28312;BME280;15572;48.810;9.148;2023-03-26T19:06:21;96904.09;;;6.86;100.00
28312;BME280;15572;48.810;9.148;2023-03-26T19:16:19;96912.38;;;6.98;100.00
28312;BME280;15572;48.810;9.148;2023-03-26T19:21:19;96914.88;;;6.93;100.00
28312;BME280;15572;48.810;9.148;2023-03-26T19:26:17;96906.13;;;6.84;100.00
28312;BME280;15572;48.810;9.148;2023-03-26T19:31:19;96901.22;;;6.94;100.00
28312;BME280;15572;48.810;9.148;2023-03-26T19:36:22;96895.81;;;6.81;100.00
28312;BME280;15572;48.810;9.148;2023-03-26T19:41:20;96907.34;;;6.68;100.00
28312;BME280;15572;48.810;9.148;2023-03-26T19:46:20;96891.44;;;6.73;100.00
28312;BME280;15572;48.810;9.148;2023-03-26T19:51:19;96884.19;;;6.74;100.00
28312;BME280;15572;48.810;9.148;2023-03-26T19:56:18;96886.88;;;6.61;100.00
28312;BME280;15572;48.810;9.148;2023-03-26T20:01:17;96895.91;;;6.47;100.00
28312;BME280;15572;48.810;9.148;2023-03-26T20:06:15;96895.31;;;6.51;100.00
28312;BME280;15572;48.810;9.148;2023-03-26T20:11:14;96891.31;;;6.34;100.00
28312;BME280;15572;48.810;9.148;2023-03-26T20:16:17;96895.25;;;6.38;100.00
28312;BME280;15572;48.810;9.148;2023-03-26T20:21:15;96889.63;;;6.26;100.00
28312;BME280;15572;48.810;9.148;2023-03-26T20:26:13;96885.28;;;6.19;100.00
28312;BME280;15572;48.810;9.148;2023-03-26T20:31:12;96887.78;;;6.27;100.00
28312;BME280;15572;48.810;9.148;2023-03-26T20:36:11;96886.94;;;6.26;100.00
28312;BME280;15572;48.810;9.148;2023-03-26T20:41:12;96888.09;;;6.58;99.21
28312;BME280;15572;48.810;9.148;2023-03-26T20:46:13;96884.09;;;6.34;100.00
28312;BME280;15572;48.810;9.148;2023-03-26T20:51:12;96885.50;;;6.24;100.00
28312;BME280;15572;48.810;9.148;2023-03-26T20:56:10;96872.94;;;6.44;100.00
28312;BME280;15572;48.810;9.148;2023-03-26T21:01:07;96876.00;;;6.28;100.00
28312;BME280;15572;48.810;9.148;2023-03-26T21:06:08;96884.28;;;6.33;100.00
28312;BME280;15572;48.810;9.148;2023-03-26T21:11:18;96872.69;;;6.32;100.00
28312;BME280;15572;48.810;9.148;2023-03-26T21:16:16;96877.91;;;6.47;100.00
28312;BME280;15572;48.810;9.148;2023-03-26T21:21:37;96890.53;;;6.40;100.00
28312;BME280;15572;48.810;9.148;2023-03-26T21:26:40;96895.44;;;6.30;100.00
28312;BME280;15572;48.810;9.148;2023-03-26T21:31:39;96896.84;;;6.26;100.00
28312;BME280;15572;48.810;9.148;2023-03-26T21:36:37;96891.44;;;6.13;100.00
28312;BME280;15572;48.810;9.148;2023-03-26T21:41:40;96893.69;;;6.09;100.00
28312;BME280;15572;48.810;9.148;2023-03-26T21:46:40;96893.94;;;6.14;100.00
28312;BME280;15572;48.810;9.148;2023-03-26T21:51:38;96892.63;;;6.04;100.00
28312;BME280;15572;48.810;9.148;2023-03-26T21:56:41;96891.28;;;5.86;100.00
28312;BME280;15572;48.810;9.148;2023-03-26T22:01:45;96895.78;;;5.79;100.00
28312;BME280;15572;48.810;9.148;2023-03-26T22:06:50;96904.25;;;5.76;100.00
28312;BME280;15572;48.810;9.148;2023-03-26T22:11:49;96913.16;;;5.83;100.00
28312;BME280;15572;48.810;9.148;2023-03-26T22:16:46;96913.56;;;5.80;100.00
28312;BME280;15572;48.810;9.148;2023-03-26T22:21:42;96914.56;;;5.79;100.00
28312;BME280;15572;48.810;9.148;2023-03-26T22:26:40;96911.41;;;5.69;100.00
28312;BME280;15572;48.810;9.148;2023-03-26T22:31:37;96919.28;;;5.71;100.00
28312;BME280;15572;48.810;9.148;2023-03-26T22:36:33;96920.69;;;5.67;100.00
28312;BME280;15572;48.810;9.148;2023-03-26T22:41:30;96922.38;;;5.74;100.00
28312;BME280;15572;48.810;9.148;2023-03-26T22:46:28;96930.16;;;5.90;100.00
28312;BME280;15572;48.810;9.148;2023-03-26T22:51:25;96942.44;;;5.78;100.00
28312;BME280;15572;48.810;9.148;2023-03-26T22:56:21;96934.25;;;5.86;100.00
28312;BME280;15572;48.810;9.148;2023-03-26T23:01:20;96944.06;;;5.73;100.00
28312;BME280;15572;48.810;9.148;2023-03-26T23:06:18;96952.94;;;5.73;100.00
28312;BME280;15572;48.810;9.148;2023-03-26T23:11:16;96972.75;;;5.93;100.00
28312;BME280;15572;48.810;9.148;2023-03-26T23:16:14;96965.44;;;6.15;100.00
28312;BME280;15572;48.810;9.148;2023-03-26T23:21:12;96979.41;;;6.04;100.00
28312;BME280;15572;48.810;9.148;2023-03-26T23:26:11;96994.34;;;6.07;100.00
28312;BME280;15572;48.810;9.148;2023-03-26T23:31:10;97001.81;;;6.11;100.00
28312;BME280;15572;48.810;9.148;2023-03-26T23:36:07;97010.97;;;6.23;100.00
28312;BME280;15572;48.810;9.148;2023-03-26T23:41:05;97020.41;;;6.13;100.00
28312;BME280;15572;48.810;9.148;2023-03-26T23:46:03;97025.78;;;6.13;100.00
28312;BME280;15572;48.810;9.148;2023-03-26T23:50:59;97033.16;;;6.04;100.00
28312;BME280;15572;48.810;9.148;2023-03-26T23:55:56;97037.09;;;6.02;100.00
